createdAt,value
2022-11-05T04:03:01.940Z,100.00
2022-11-05T04:05:30.665Z,100.00
2022-11-05T04:08:16.743Z,100.00
2022-11-05T04:11:02.710Z,100.00
2022-11-05T04:13:31.152Z,100.00
2022-11-05T04:16:17.137Z,100.00
2022-11-05T04:18:46.894Z,100.00
2022-11-05T04:21:33.041Z,100.00
2022-11-05T04:24:10.460Z,100.00
2022-11-05T04:26:41.405Z,100.00
2022-11-05T04:29:27.581Z,100.00
2022-11-05T04:31:56.198Z,100.00
2022-11-05T04:34:25.927Z,100.00
2022-11-05T04:36:54.742Z,100.00
2022-11-05T04:39:23.182Z,100.00
2022-11-05T04:41:51.551Z,100.00
2022-11-05T04:44:19.881Z,100.00
2022-11-05T04:46:48.271Z,100.00
2022-11-05T04:49:17.888Z,100.00
2022-11-05T04:51:47.663Z,100.00
2022-11-05T04:54:16.068Z,100.00
2022-11-05T04:56:44.397Z,100.00
2022-11-05T04:59:12.764Z,100.00
2022-11-05T05:01:41.293Z,100.00
2022-11-05T05:04:09.724Z,100.00
2022-11-05T05:06:38.506Z,100.00
2022-11-05T05:09:08.219Z,100.00
2022-11-05T05:11:36.665Z,100.00
2022-11-05T05:14:04.983Z,100.00
2022-11-05T05:16:33.438Z,100.00
2022-11-05T05:19:01.836Z,100.00
2022-11-05T05:21:41.744Z,100.00
2022-11-05T05:24:14.197Z,100.00
2022-11-05T05:26:45.073Z,100.00
2022-11-05T05:29:14.195Z,100.00
2022-11-05T05:31:42.912Z,100.00
2022-11-05T05:34:14.338Z,100.00
2022-11-05T05:36:42.717Z,100.00
2022-11-05T05:39:12.404Z,100.00
2022-11-05T05:41:40.798Z,100.00
2022-11-05T05:44:09.348Z,100.00
2022-11-05T05:46:37.718Z,100.00
2022-11-05T05:49:11.184Z,100.00
2022-11-05T05:51:41.053Z,100.00
2022-11-05T05:54:13.130Z,100.00
2022-11-05T05:56:42.185Z,100.00
2022-11-05T05:59:10.592Z,100.00
2022-11-05T06:01:39.334Z,100.00
2022-11-05T06:04:07.963Z,100.00
2022-11-05T06:06:36.442Z,100.00
2022-11-05T06:09:05.328Z,100.00
2022-11-05T06:11:35.127Z,100.00
2022-11-05T06:14:03.821Z,100.00
2022-11-05T06:16:35.869Z,100.00
2022-11-05T06:19:04.576Z,100.00
2022-11-05T06:21:33.070Z,100.00
2022-11-05T06:24:02.780Z,100.00
2022-11-05T06:26:31.892Z,100.00
2022-11-05T06:29:01.628Z,100.00
2022-11-05T06:31:30.063Z,100.00
2022-11-05T06:33:58.429Z,100.00
2022-11-05T06:36:26.803Z,99.68
2022-11-05T06:38:55.209Z,99.62
2022-11-05T06:41:23.664Z,99.82
2022-11-05T06:43:52.038Z,99.69
2022-11-05T06:46:21.842Z,99.14
2022-11-05T06:48:51.060Z,99.31
2022-11-05T06:51:25.697Z,99.29
2022-11-05T06:53:54.252Z,99.33
2022-11-05T06:56:22.684Z,98.47
2022-11-05T06:58:51.045Z,99.17
2022-11-05T07:01:21.220Z,98.48
2022-11-05T07:03:50.053Z,98.28
2022-11-05T07:06:18.507Z,98.34
2022-11-05T07:08:46.831Z,99.02
2022-11-05T07:11:15.263Z,100.00
2022-11-05T07:13:43.745Z,99.61
2022-11-05T07:16:12.349Z,100.00
2022-11-05T07:18:42.068Z,100.00
2022-11-05T07:21:10.512Z,100.00
2022-11-05T07:23:39.096Z,100.00
2022-11-05T07:26:07.510Z,100.00
2022-11-05T07:28:35.953Z,100.00
2022-11-05T07:31:04.342Z,100.00
2022-11-05T07:33:36.583Z,100.00
2022-11-05T07:36:07.672Z,100.00
2022-11-05T07:38:36.146Z,100.00
2022-11-05T07:41:05.031Z,100.00
2022-11-05T07:43:33.488Z,100.00
2022-11-05T07:46:01.876Z,100.00
2022-11-05T07:48:30.378Z,100.00
2022-11-05T07:50:58.841Z,100.00
2022-11-05T07:53:28.652Z,100.00
2022-11-05T07:55:58.965Z,100.00
2022-11-05T07:58:27.374Z,100.00
2022-11-05T08:00:55.895Z,100.00
2022-11-05T08:03:24.470Z,100.00
2022-11-05T08:05:52.972Z,100.00
2022-11-05T08:08:21.860Z,100.00
2022-11-05T08:10:51.950Z,100.00
2022-11-05T08:13:20.588Z,97.02
2022-11-05T08:15:49.347Z,93.21
2022-11-05T08:18:19.142Z,95.28
2022-11-05T08:20:48.972Z,95.37
2022-11-05T08:23:17.309Z,95.97
2022-11-05T08:25:45.752Z,91.83
2022-11-05T08:28:15.540Z,86.80
2022-11-05T08:30:44.114Z,91.05
2022-11-05T08:33:14.621Z,89.22
2022-11-05T08:35:43.716Z,85.94
2022-11-05T08:38:15.550Z,87.69
2022-11-05T08:40:46.077Z,83.63
2022-11-05T08:43:15.816Z,82.01
2022-11-05T08:45:44.224Z,81.05
2022-11-05T08:48:15.518Z,84.62
2022-11-05T08:50:45.007Z,87.49
2022-11-05T08:53:14.615Z,88.09
2022-11-05T08:55:44.004Z,88.38
2022-11-05T08:58:17.012Z,89.01
2022-11-05T09:00:49.867Z,88.31
2022-11-05T09:03:19.206Z,88.77
2022-11-05T09:05:47.747Z,89.15
2022-11-05T09:08:18.561Z,86.44
2022-11-05T09:10:49.858Z,86.64
2022-11-05T09:13:20.450Z,87.17
2022-11-05T09:15:49.652Z,87.54
2022-11-05T09:18:19.806Z,88.62
2022-11-05T09:20:49.000Z,88.65
2022-11-05T09:23:17.876Z,87.44
2022-11-05T09:25:46.968Z,86.38
2022-11-05T09:28:18.431Z,85.50
2022-11-05T09:30:50.389Z,84.61
2022-11-05T09:33:21.720Z,85.25
2022-11-05T09:35:50.508Z,85.29
2022-11-05T09:38:18.934Z,86.23
2022-11-05T09:40:57.452Z,84.81
2022-11-05T09:43:32.802Z,84.74
2022-11-05T09:46:09.742Z,85.06
2022-11-05T09:48:40.776Z,84.98
2022-11-05T09:51:11.352Z,84.52
2022-11-05T09:53:42.521Z,82.83
2022-11-05T09:56:22.702Z,81.87
2022-11-05T09:58:56.608Z,80.35
2022-11-05T10:01:32.557Z,80.21
2022-11-05T10:04:06.723Z,78.94
2022-11-05T10:06:35.777Z,77.34
2022-11-05T10:09:13.146Z,72.93
2022-11-05T10:11:47.362Z,71.87
2022-11-05T10:14:23.046Z,68.21
2022-11-05T10:16:59.644Z,65.38
2022-11-05T10:19:45.356Z,65.87
2022-11-05T10:22:16.862Z,63.70
2022-11-05T10:24:49.936Z,61.49
2022-11-05T10:27:23.366Z,63.51
2022-11-05T10:29:52.284Z,63.84
2022-11-05T10:32:31.480Z,64.57
2022-11-05T10:35:03.697Z,65.14
2022-11-05T10:37:36.998Z,67.09
2022-11-05T10:40:20.443Z,65.55
2022-11-05T10:43:00.006Z,63.90
2022-11-05T10:45:41.862Z,64.22
2022-11-05T10:48:53.392Z,62.95
2022-11-05T10:51:21.885Z,63.55
2022-11-05T10:54:01.387Z,64.55
2022-11-05T10:56:36.524Z,65.34
2022-11-05T10:59:12.201Z,60.97
2022-11-05T11:01:41.387Z,60.40
2022-11-05T11:04:23.717Z,57.78
2022-11-05T11:06:56.122Z,59.00
2022-11-05T11:09:28.131Z,57.46
2022-11-05T11:12:07.519Z,57.48
2022-11-05T11:14:36.101Z,61.18
2022-11-05T11:17:29.194Z,62.10
2022-11-05T11:20:31.436Z,62.40
2022-11-05T11:23:06.609Z,62.77
2022-11-05T11:25:43.212Z,58.96
2022-11-05T11:28:22.559Z,56.89
2022-11-05T11:31:02.342Z,55.69
2022-11-05T11:33:32.364Z,55.86
2022-11-05T11:36:02.456Z,55.99
2022-11-05T11:38:33.112Z,56.72
2022-11-05T11:41:06.719Z,55.76
2022-11-05T11:43:38.561Z,54.31
2022-11-05T11:46:16.152Z,52.64
2022-11-05T11:48:47.631Z,53.63
2022-11-05T11:51:31.574Z,54.42
2022-11-05T11:54:01.880Z,56.91
2022-11-05T11:56:32.517Z,57.68
2022-11-05T11:59:14.201Z,56.13
2022-11-05T12:02:36.375Z,55.12
2022-11-05T12:05:41.117Z,54.29
2022-11-05T12:08:45.633Z,56.53
2022-11-05T12:11:22.445Z,55.36
2022-11-05T12:14:04.319Z,54.51
2022-11-05T12:16:59.793Z,55.49
2022-11-05T12:19:53.875Z,53.61
2022-11-05T12:22:49.788Z,54.45
2022-11-05T12:25:30.545Z,55.84
2022-11-05T12:28:36.080Z,55.46
2022-11-05T12:31:14.178Z,53.81
2022-11-05T12:33:54.193Z,55.07
2022-11-05T12:36:36.881Z,56.25
2022-11-05T12:39:30.512Z,54.81
2022-11-05T12:42:04.207Z,55.28
2022-11-05T12:45:03.021Z,55.37
2022-11-05T12:47:50.860Z,54.97
2022-11-05T12:50:26.384Z,57.19
2022-11-05T12:53:33.373Z,57.26
2022-11-05T12:56:11.394Z,58.22
2022-11-05T12:58:45.867Z,57.48
